Time;durP1;ratioP1;P1;durP2;ratioP2;P2;SDS_P1;SDS_P2;PMS_P1;PMS_P2;Temp;Humidity;BMP_temperature;BMP_pressure;BME280_temperature;BME280_humidity;BME280_pressure;Samples;Min_cycle;Max_cycle;Signal;HPM_P1;HPM_P2
2023/05/30 00:00:45;;;;;;;12.75;2.45;;;;;;;13.92;70.36;102368.44;4969983;28;20051;-50
2023/05/30 00:03:12;;;;;;;7.90;2.30;;;;;;;13.92;70.46;102368.44;4953055;28;20047;-44
2023/05/30 00:05:39;;;;;;;11.77;2.65;;;;;;;13.90;70.47;102373.50;4972228;28;20078;-44
2023/05/30 00:08:06;;;;;;;11.73;2.83;;;;;;;13.92;70.60;102370.41;4956914;28;20043;-44
2023/05/30 00:10:34;;;;;;;13.55;3.17;;;;;;;13.90;70.89;102367.94;4956830;28;20133;-44
2023/05/30 00:13:02;;;;;;;7.63;2.72;;;;;;;13.92;71.08;102370.41;4974027;28;20034;-44
2023/05/30 00:15:31;;;;;;;16.45;3.38;;;;;;;13.93;70.93;102367.28;4972837;28;20117;-44
2023/05/30 00:18:00;;;;;;;10.85;2.42;;;;;;;13.91;71.00;102364.00;4973531;28;20046;-49
2023/05/30 00:20:29;;;;;;;9.73;3.42;;;;;;;13.89;71.21;102369.09;4973978;28;20078;-44
2023/05/30 00:23:00;;;;;;;10.38;2.78;;;;;;;13.90;71.77;102367.09;4973070;28;20043;-45
2023/05/30 00:25:27;;;;;;;15.45;2.75;;;;;;;13.89;71.06;102369.09;4973244;28;20552;-45
2023/05/30 00:27:54;;;;;;;11.35;2.83;;;;;;;13.87;71.21;102367.78;4973687;28;20163;-44
2023/05/30 00:30:21;;;;;;;13.02;3.15;;;;;;;13.83;71.50;102367.63;4973270;28;20530;-44
2023/05/30 00:32:48;;;;;;;13.52;3.38;;;;;;;13.82;71.39;102371.53;4973240;28;20047;-49
2023/05/30 00:35:16;;;;;;;14.45;3.17;;;;;;;13.80;71.55;102373.84;4973495;28;20058;-45
2023/05/30 00:37:43;;;;;;;7.10;2.78;;;;;;;13.79;71.49;102371.41;4974006;28;20075;-44
2023/05/30 00:40:11;;;;;;;6.75;2.83;;;;;;;13.78;71.61;102387.28;4972712;28;20097;-44
2023/05/30 00:42:38;;;;;;;11.70;2.40;;;;;;;13.80;71.49;102378.59;4973679;28;20051;-44
2023/05/30 00:45:06;;;;;;;12.45;2.90;;;;;;;13.79;71.60;102371.41;4973401;28;20154;-44
2023/05/30 00:47:33;;;;;;;8.93;3.47;;;;;;;13.78;71.89;102372.53;4972555;28;20094;-45
2023/05/30 00:50:01;;;;;;;15.35;3.25;;;;;;;13.76;71.89;102370.09;4970102;28;20074;-45
2023/05/30 00:52:29;;;;;;;11.98;2.63;;;;;;;13.72;71.91;102373.81;4966350;28;20702;-45
2023/05/30 00:55:02;;;;;;;12.98;4.53;;;;;;;13.72;72.06;102371.88;4969136;28;20794;-44
2023/05/30 00:57:33;;;;;;;9.70;2.85;;;;;;;13.70;72.22;102371.38;4973134;28;20074;-45
2023/05/30 01:00:03;;;;;;;10.90;2.70;;;;;;;13.71;72.44;102361.06;4972571;28;20497;-46
2023/05/30 01:02:33;;;;;;;13.80;2.40;;;;;;;13.68;72.28;102375.63;4972538;28;20046;-49
2023/05/30 01:05:03;;;;;;;9.35;3.00;;;;;;;13.67;72.16;102372.03;4971845;28;20109;-45
2023/05/30 01:07:31;;;;;;;12.55;3.78;;;;;;;13.64;72.50;102383.81;4972685;28;20050;-44
2023/05/30 01:09:59;;;;;;;9.35;2.47;;;;;;;13.63;72.65;102373.84;4972649;28;20771;-45
2023/05/30 01:13:00;;;;;;;12.38;2.83;;;;;;;13.62;72.96;102376.94;4973298;28;20101;-45
2023/05/30 01:15:32;;;;;;;12.52;4.55;;;;;;;13.59;72.69;102372.84;4972567;28;20074;-44
2023/05/30 01:18:37;;;;;;;9.32;3.25;;;;;;;13.56;72.95;102370.72;4971960;28;20054;-45
2023/05/30 01:21:10;;;;;;;8.45;2.75;;;;;;;13.55;72.68;102379.41;4947056;28;20062;-46
2023/05/30 01:23:52;;;;;;;10.07;2.55;;;;;;;13.52;72.79;102378.09;4964465;28;20051;-47
2023/05/30 01:26:26;;;;;;;14.13;2.73;;;;;;;13.48;73.21;102382.66;4971988;28;20241;-45
2023/05/30 01:28:55;;;;;;;11.93;2.97;;;;;;;13.43;73.23;102380.84;4972383;28;20055;-48
2023/05/30 01:31:23;;;;;;;12.48;3.58;;;;;;;13.40;73.55;102387.06;4972657;28;20141;-44
2023/05/30 01:33:51;;;;;;;12.38;4.03;;;;;;;13.37;73.65;102387.69;4972684;28;20054;-52
2023/05/30 01:36:20;;;;;;;18.10;2.72;;;;;;;13.37;73.74;102387.69;4972155;28;20042;-51
2023/05/30 01:38:47;;;;;;;12.32;2.92;;;;;;;13.34;73.66;102393.13;4969765;28;20047;-48
2023/05/30 01:41:27;;;;;;;18.10;3.50;;;;;;;13.31;73.98;102389.03;4972167;28;20133;-45
2023/05/30 01:44:06;;;;;;;9.90;2.95;;;;;;;13.28;74.12;102391.63;4972026;28;20053;-44
2023/05/30 01:46:36;;;;;;;17.30;4.05;;;;;;;13.26;74.26;102388.34;4972111;28;20129;-50
2023/05/30 01:49:12;;;;;;;18.73;4.15;;;;;;;13.26;74.27;102385.56;4954194;28;20050;-44
2023/05/30 01:51:57;;;;;;;16.25;2.92;;;;;;;13.24;74.30;102390.59;4970706;28;20054;-45
2023/05/30 01:54:28;;;;;;;15.15;3.33;;;;;;;13.24;74.49;102390.59;4971789;28;20129;-53
2023/05/30 01:57:01;;;;;;;15.88;3.95;;;;;;;13.22;74.60;102395.69;4970708;28;20046;-49
2023/05/30 01:59:29;;;;;;;18.17;4.63;;;;;;;13.21;74.79;102396.84;4971890;28;20471;-45
2023/05/30 02:01:58;;;;;;;11.32;3.08;;;;;;;13.23;75.17;102397.34;4971532;28;20102;-45
2023/05/30 02:04:25;;;;;;;9.27;2.80;;;;;;;13.23;74.98;102397.34;4972071;28;20082;-51
2023/05/30 02:06:52;;;;;;;14.65;3.83;;;;;;;13.24;75.06;102410.09;4971738;28;20066;-45
2023/05/30 02:09:19;;;;;;;12.40;2.88;;;;;;;13.24;74.93;102399.78;4971891;28;20043;-44
2023/05/30 02:11:46;;;;;;;7.63;2.75;;;;;;;13.21;75.34;102405.19;4971683;28;20386;-45
2023/05/30 02:14:13;;;;;;;13.27;3.75;;;;;;;13.21;75.39;102410.75;4970782;28;20141;-44
2023/05/30 02:16:40;;;;;;;7.80;2.78;;;;;;;13.19;75.54;102408.28;4971577;28;20047;-44
2023/05/30 02:19:08;;;;;;;11.90;3.28;;;;;;;13.18;75.70;102414.19;4971184;28;20158;-45
2023/05/30 02:21:35;;;;;;;12.85;3.40;;;;;;;13.15;75.70;102412.03;4952753;28;20042;-45
2023/05/30 02:24:03;;;;;;;7.57;2.80;;;;;;;13.14;75.91;102411.22;4969565;28;20054;-45
2023/05/30 02:26:30;;;;;;;9.63;2.97;;;;;;;13.15;75.90;102406.47;4970694;28;20138;-44
2023/05/30 02:28:57;;;;;;;18.17;4.78;;;;;;;13.14;75.91;102415.94;4971108;28;20046;-44
2023/05/30 02:31:24;;;;;;;11.63;3.03;;;;;;;13.14;75.93;102422.34;4970635;28;20058;-45
2023/05/30 02:33:51;;;;;;;14.80;3.40;;;;;;;13.13;76.09;102408.75;4971220;28;20054;-45
2023/05/30 02:36:18;;;;;;;13.40;3.92;;;;;;;13.11;76.18;102416.59;4971393;28;20050;-44
2023/05/30 02:38:46;;;;;;;10.45;3.75;;;;;;;13.09;76.21;102416.91;4971029;28;20046;-46
2023/05/30 02:41:13;;;;;;;7.55;2.25;;;;;;;13.09;76.29;102416.91;4971367;28;20061;-48
2023/05/30 02:43:40;;;;;;;13.02;2.90;;;;;;;13.07;76.39;102422.00;4971311;28;20069;-46
2023/05/30 02:46:07;;;;;;;12.65;3.67;;;;;;;13.05;76.25;102418.66;4970684;28;20031;-44
2023/05/30 02:48:34;;;;;;;13.45;2.60;;;;;;;13.03;76.23;102414.56;4970010;28;20097;-44
2023/05/30 02:51:01;;;;;;;12.60;3.38;;;;;;;12.98;76.47;102420.25;4971159;28;20050;-44
2023/05/30 02:53:28;;;;;;;10.35;3.92;;;;;;;12.93;76.29;102421.22;4969880;28;20133;-48
2023/05/30 02:55:56;;;;;;;13.95;2.90;;;;;;;12.91;76.62;102429.09;4961201;28;20047;-44
2023/05/30 02:58:23;;;;;;;15.50;5.72;;;;;;;12.88;76.62;102426.13;4969206;28;20417;-44
2023/05/30 03:00:50;;;;;;;7.97;3.53;;;;;;;12.86;76.62;102436.75;5004729;23;21236;-49
2023/05/30 03:03:19;;;;;;;11.07;3.60;;;;;;;12.82;76.75;102428.22;4967898;28;20035;-48
2023/05/30 03:05:49;;;;;;;16.00;3.30;;;;;;;12.80;76.87;102433.28;4969758;28;20419;-45
2023/05/30 03:08:17;;;;;;;16.10;3.38;;;;;;;12.76;77.04;102435.84;4970548;28;20047;-44
2023/05/30 03:10:52;;;;;;;7.45;3.00;;;;;;;12.76;77.11;102435.06;4972964;28;20046;-52
2023/05/30 03:13:19;;;;;;;14.50;2.78;;;;;;;12.75;77.11;102430.63;4970706;28;20084;-44
2023/05/30 03:15:47;;;;;;;9.45;3.25;;;;;;;12.74;77.31;102429.81;4966119;28;20042;-45
2023/05/30 03:18:14;;;;;;;16.00;3.22;;;;;;;12.75;77.35;102431.47;4968748;28;20492;-44
2023/05/30 03:20:42;;;;;;;16.55;3.20;;;;;;;12.75;77.47;102437.00;4967471;28;20486;-47
2023/05/30 03:23:09;;;;;;;13.07;3.95;;;;;;;12.76;77.53;102438.63;4967018;28;20050;-48
2023/05/30 03:25:36;;;;;;;11.73;2.95;;;;;;;12.76;77.58;102444.19;4967031;28;20408;-45
2023/05/30 03:28:06;;;;;;;8.52;2.83;;;;;;;12.75;77.75;102436.19;4968006;28;20079;-44
2023/05/30 03:30:33;;;;;;;12.90;3.83;;;;;;;12.74;77.85;102440.94;4966925;28;20369;-46
2023/05/30 03:33:01;;;;;;;9.73;2.65;;;;;;;12.72;78.01;102431.28;4969213;28;20053;-45
2023/05/30 03:35:28;;;;;;;6.75;2.92;;;;;;;12.70;78.09;102437.16;4968443;28;20041;-44
2023/05/30 03:37:55;;;;;;;11.18;2.72;;;;;;;12.68;78.34;102439.41;4967389;28;20046;-44
2023/05/30 03:40:21;;;;;;;12.65;4.35;;;;;;;12.69;78.51;102440.22;4968914;28;20043;-47
2023/05/30 03:42:50;;;;;;;11.52;4.18;;;;;;;12.67;78.51;102439.75;4966957;28;20489;-47
2023/05/30 03:45:17;;;;;;;13.52;3.45;;;;;;;12.64;78.44;102443.97;4963282;28;20043;-51
2023/05/30 03:47:43;;;;;;;13.00;3.30;;;;;;;12.63;78.71;102445.09;4976837;28;20090;-44
2023/05/30 03:50:10;;;;;;;14.60;4.03;;;;;;;12.62;78.68;102446.25;4964873;28;20039;-44
2023/05/30 03:52:37;;;;;;;17.27;4.53;;;;;;;12.61;78.75;102447.38;4964883;28;20054;-46
2023/05/30 03:55:05;;;;;;;16.02;4.22;;;;;;;12.61;78.99;102444.59;4966727;28;20505;-44
2023/05/30 03:57:31;;;;;;;11.68;3.40;;;;;;;12.59;79.08;102449.66;4962674;28;20042;-48
2023/05/30 03:59:58;;;;;;;11.05;3.88;;;;;;;12.55;79.19;102436.75;4967910;28;20047;-51
2023/05/30 04:02:25;;;;;;;11.43;3.42;;;;;;;12.54;79.41;102441.47;4967339;28;20412;-44
2023/05/30 04:04:53;;;;;;;9.65;3.03;;;;;;;12.50;79.45;102434.91;4965859;28;20034;-44
2023/05/30 04:07:20;;;;;;;12.02;3.40;;;;;;;12.51;79.78;102435.72;4961307;28;20681;-44
2023/05/30 04:09:47;;;;;;;11.25;4.50;;;;;;;12.52;80.11;102432.59;4968121;28;20043;-45
2023/05/30 04:12:13;;;;;;;13.77;4.45;;;;;;;12.51;79.90;102435.72;4957893;28;20051;-45
2023/05/30 04:14:40;;;;;;;12.77;3.95;;;;;;;12.50;79.97;102434.91;4964004;28;20054;-44
2023/05/30 04:17:07;;;;;;;8.95;3.53;;;;;;;12.47;80.22;102434.72;4964321;28;20072;-47
2023/05/30 04:19:34;;;;;;;12.23;3.47;;;;;;;12.45;80.23;102437.81;4964348;28;20126;-44
2023/05/30 04:22:01;;;;;;;19.30;4.40;;;;;;;12.43;80.38;102428.97;4959405;28;20083;-44
2023/05/30 04:24:31;;;;;;;13.07;3.97;;;;;;;12.45;80.42;102437.81;4966184;28;20042;-49
2023/05/30 04:26:58;;;;;;;12.68;3.30;;;;;;;12.46;80.42;102438.63;4967450;28;20075;-47
2023/05/30 04:29:26;;;;;;;17.75;4.07;;;;;;;12.46;80.48;102438.63;4963008;28;20431;-44
2023/05/30 04:31:53;;;;;;;15.98;3.17;;;;;;;12.44;80.82;102435.34;4965826;28;20047;-44
2023/05/30 04:34:22;;;;;;;9.25;2.42;;;;;;;12.44;80.86;102438.97;4965116;28;20541;-44
2023/05/30 04:36:52;;;;;;;9.23;3.50;;;;;;;12.44;81.01;102443.69;4966379;28;20062;-46
2023/05/30 04:39:19;;;;;;;18.38;4.18;;;;;;;12.44;81.05;102447.28;4966229;28;20039;-47
2023/05/30 04:41:46;;;;;;;12.07;4.18;;;;;;;12.46;81.15;102436.69;4969147;28;20125;-44
2023/05/30 04:44:12;;;;;;;8.65;3.10;;;;;;;12.48;81.03;102442.72;4966256;28;20070;-51
2023/05/30 04:46:40;;;;;;;7.78;3.17;;;;;;;12.49;81.18;102444.38;4963891;28;20105;-45
2023/05/30 04:49:07;;;;;;;9.43;3.30;;;;;;;12.50;81.38;102440.44;4967432;28;20101;-48
2023/05/30 04:51:33;;;;;;;11.95;3.28;;;;;;;12.51;81.23;102452.38;4966680;28;20051;-44
2023/05/30 04:54:00;;;;;;;15.90;3.95;;;;;;;12.52;81.23;102452.06;4966926;28;20055;-45
2023/05/30 04:56:27;;;;;;;14.85;3.55;;;;;;;12.54;81.26;102451.75;4968413;28;20050;-44
2023/05/30 04:58:56;;;;;;;14.85;3.30;;;;;;;12.50;81.35;102451.56;4961443;28;20381;-44
2023/05/30 05:01:24;;;;;;;10.32;3.50;;;;;;;12.51;81.44;102452.38;4958703;28;20047;-49
2023/05/30 05:03:53;;;;;;;11.30;3.35;;;;;;;12.53;81.55;102453.72;4967102;28;20081;-44
2023/05/30 05:06:20;;;;;;;14.40;4.00;;;;;;;12.56;81.49;102455.84;4979939;28;20054;-45
2023/05/30 05:08:48;;;;;;;12.38;3.70;;;;;;;12.61;81.55;102454.91;4999937;28;20042;-44
2023/05/30 05:11:15;;;;;;;7.28;2.80;;;;;;;12.63;81.55;102456.22;4993917;28;20041;-45
2023/05/30 05:13:42;;;;;;;13.20;4.32;;;;;;;12.65;81.44;102459.53;4992048;28;20053;-44
2023/05/30 05:16:08;;;;;;;8.70;3.70;;;;;;;12.68;81.48;102464.41;4991556;28;20496;-45
2023/05/30 05:18:35;;;;;;;11.90;3.67;;;;;;;12.71;81.47;102466.56;4973887;28;20463;-51
2023/05/30 05:21:03;;;;;;;17.83;4.20;;;;;;;12.75;81.53;102463.97;4981679;28;20053;-44
2023/05/30 05:23:30;;;;;;;9.43;3.72;;;;;;;12.77;81.68;102465.31;4992553;28;20121;-45
2023/05/30 05:25:57;;;;;;;17.55;4.45;;;;;;;12.79;81.75;102463.03;4992337;28;20085;-45
2023/05/30 05:28:24;;;;;;;10.43;3.47;;;;;;;12.83;81.67;102469.59;4991760;28;20523;-53
2023/05/30 05:30:51;;;;;;;14.23;3.83;;;;;;;12.87;81.68;102460.63;4992114;28;20042;-45
2023/05/30 05:33:18;;;;;;;13.35;4.32;;;;;;;12.90;81.90;102460.78;4992342;28;20078;-46
2023/05/30 05:35:48;;;;;;;7.15;3.30;;;;;;;12.95;82.04;102462.59;4991035;28;20061;-45
2023/05/30 05:38:16;;;;;;;10.63;3.30;;;;;;;12.96;82.06;102461.47;4985176;28;20085;-47
2023/05/30 05:40:43;;;;;;;14.57;4.32;;;;;;;12.99;82.19;102472.78;4989108;28;20042;-44
2023/05/30 05:43:11;;;;;;;13.52;4.47;;;;;;;13.03;82.20;102470.16;4991461;28;20046;-44
2023/05/30 05:45:38;;;;;;;10.55;4.00;;;;;;;13.05;82.48;102465.91;4987193;28;20559;-45
2023/05/30 05:48:05;;;;;;;14.25;4.70;;;;;;;13.10;82.59;102470.56;4980777;28;20050;-45
2023/05/30 05:50:32;;;;;;;17.17;3.90;;;;;;;13.14;82.61;102477.13;4984571;28;20392;-45
2023/05/30 05:52:59;;;;;;;9.60;3.50;;;;;;;13.20;82.73;102470.28;4998384;28;20391;-45
2023/05/30 05:55:25;;;;;;;14.60;3.90;;;;;;;13.25;82.73;102481.25;4990267;28;20069;-46
2023/05/30 05:57:53;;;;;;;13.98;3.47;;;;;;;13.31;83.00;102474.44;4990319;28;20045;-46
2023/05/30 06:00:25;;;;;;;17.58;4.45;;;;;;;13.38;83.04;102481.16;4990327;28;20551;-44
2023/05/30 06:02:52;;;;;;;17.30;5.05;;;;;;;13.44;82.92;102490.19;4990260;28;20060;-45
2023/05/30 06:05:19;;;;;;;16.58;4.80;;;;;;;13.47;83.12;102472.84;4990680;28;20054;-46
2023/05/30 06:07:46;;;;;;;21.42;4.65;;;;;;;13.54;83.14;102483.50;4990650;28;20461;-47
2023/05/30 06:10:13;;;;;;;12.60;3.58;;;;;;;13.60;83.33;102485.00;4991013;28;20053;-48
2023/05/30 06:12:40;;;;;;;20.52;4.63;;;;;;;13.67;83.35;102479.75;4990061;28;20056;-45
2023/05/30 06:15:07;;;;;;;12.30;4.03;;;;;;;13.71;83.38;102487.16;4986690;28;20440;-47
2023/05/30 06:17:34;;;;;;;15.63;3.80;;;;;;;13.76;83.34;102487.00;4990767;28;20055;-46
2023/05/30 06:20:02;;;;;;;14.85;3.80;;;;;;;13.84;83.56;102491.78;4991230;28;20113;-44
2023/05/30 06:22:29;;;;;;;10.68;3.92;;;;;;;13.93;83.60;102491.75;4990844;28;20054;-46
2023/05/30 06:24:59;;;;;;;12.32;3.50;;;;;;;13.98;83.86;102492.41;4990915;28;20054;-44
2023/05/30 06:27:26;;;;;;;12.85;3.67;;;;;;;14.02;83.68;102493.44;4988684;28;20440;-44
2023/05/30 06:29:53;;;;;;;14.35;3.67;;;;;;;14.06;83.68;102493.56;4991084;28;20069;-49
2023/05/30 06:32:20;;;;;;;11.27;3.88;;;;;;;14.13;nan;102496.72;4983575;28;20500;-51
2023/05/30 06:34:48;;;;;;;10.50;4.20;;;;;;;14.18;83.77;102490.16;4987266;28;20060;-47
2023/05/30 06:37:15;;;;;;;23.17;4.43;;;;;;;14.24;83.67;102503.59;4996199;28;20121;-44
2023/05/30 06:39:42;;;;;;;9.38;3.22;;;;;;;14.29;83.61;102500.66;4990400;28;20519;-44
2023/05/30 06:42:11;;;;;;;19.45;3.63;;;;;;;14.35;83.53;102498.56;5002202;28;20095;-53
2023/05/30 06:44:38;;;;;;;11.05;3.55;;;;;;;14.39;83.35;102496.75;4987930;28;20043;-45
2023/05/30 06:47:05;;;;;;;18.13;3.67;;;;;;;14.41;83.14;102494.44;4986926;28;20511;-51
2023/05/30 06:49:33;;;;;;;12.07;3.20;;;;;;;14.44;82.89;102494.59;4990366;28;20045;-44
2023/05/30 06:51:59;;;;;;;14.20;3.50;;;;;;;14.50;82.68;102498.03;4990462;28;20066;-44
2023/05/30 06:54:26;;;;;;;12.57;3.17;;;;;;;14.56;82.62;102503.09;4990607;28;20050;-45
2023/05/30 06:56:54;;;;;;;11.40;2.78;;;;;;;14.64;82.36;102504.25;4987862;28;20082;-44
2023/05/30 06:59:21;;;;;;;11.77;2.85;;;;;;;14.73;82.13;102507.84;4968317;28;20055;-51
2023/05/30 07:01:48;;;;;;;7.82;2.75;;;;;;;14.83;81.83;102513.06;4978058;28;20065;-45
2023/05/30 07:04:15;;;;;;;12.27;3.65;;;;;;;14.89;81.20;102520.13;4979605;28;20047;-46
2023/05/30 07:06:42;;;;;;;12.40;4.13;;;;;;;14.96;81.18;102517.63;4988693;28;20104;-44
2023/05/30 07:09:09;;;;;;;17.05;4.22;;;;;;;15.06;81.10;102514.47;4972126;28;20352;-45
2023/05/30 07:11:36;;;;;;;7.38;2.55;;;;;;;15.17;80.87;102512.97;4982289;28;20050;-44
2023/05/30 07:14:03;;;;;;;9.32;2.45;;;;;;;15.27;80.87;102518.19;4981824;28;20068;-44
2023/05/30 07:16:31;;;;;;;12.10;2.53;;;;;;;15.39;80.81;102516.66;4986901;28;20034;-44
2023/05/30 07:18:58;;;;;;;9.43;2.55;;;;;;;15.50;80.84;102520.75;4983500;28;20500;-47
2023/05/30 07:21:38;;;;;;;12.35;2.45;;;;;;;15.63;80.92;102519.72;4985892;28;20133;-44
2023/05/30 07:24:05;;;;;;;12.77;3.22;;;;;;;15.73;80.97;102519.31;4978687;28;20105;-44
2023/05/30 07:26:34;;;;;;;8.50;3.00;;;;;;;15.87;81.00;102530.25;4985965;28;20395;-45
2023/05/30 07:29:01;;;;;;;8.88;2.30;;;;;;;16.01;81.15;102526.06;4981415;28;20403;-46
2023/05/30 07:31:28;;;;;;;12.73;3.65;;;;;;;16.14;80.58;102525.00;4982755;28;20500;-48
2023/05/30 07:33:55;;;;;;;13.75;2.85;;;;;;;16.28;80.75;102531.09;4989861;28;20629;-49
2023/05/30 07:36:22;;;;;;;10.73;2.75;;;;;;;16.47;80.69;102532.63;4988567;28;20050;-46
2023/05/30 07:38:49;;;;;;;10.20;2.50;;;;;;;16.64;79.66;102532.50;4985310;28;20633;-49
2023/05/30 07:41:16;;;;;;;12.18;2.53;;;;;;;16.84;79.80;102520.44;4986612;28;20050;-46
2023/05/30 07:43:43;;;;;;;11.23;2.75;;;;;;;17.08;80.56;102526.09;4986801;28;20073;-49
2023/05/30 07:46:10;;;;;;;10.13;2.53;;;;;;;17.42;79.72;102525.69;4989500;28;20073;-46
2023/05/30 07:48:37;;;;;;;9.25;2.15;;;;;;;17.85;78.91;102533.56;4986158;28;20050;-46
2023/05/30 07:51:05;;;;;;;5.75;2.00;;;;;;;18.41;77.08;102531.69;4981299;28;20055;-45
2023/05/30 07:53:32;;;;;;;7.55;2.10;;;;;;;19.07;73.46;102528.38;4979985;28;20480;-45
2023/05/30 07:56:00;;;;;;;6.55;2.05;;;;;;;19.78;69.98;102536.66;4984687;28;20120;-45
2023/05/30 07:58:26;;;;;;;9.05;2.33;;;;;;;20.52;65.83;102542.03;4984668;28;20050;-47
2023/05/30 08:00:53;;;;;;;11.27;1.92;;;;;;;21.18;62.45;102550.22;4981915;28;20829;-47
2023/05/30 08:03:21;;;;;;;8.55;2.35;;;;;;;21.64;58.64;102544.59;4982340;28;20049;-47
2023/05/30 08:05:51;;;;;;;12.30;3.10;;;;;;;22.19;56.19;102543.88;4988392;28;20050;-43
2023/05/30 08:08:18;;;;;;;7.13;2.08;;;;;;;22.72;54.32;102538.16;4983517;28;20176;-46
2023/05/30 08:10:45;;;;;;;5.53;2.08;;;;;;;23.06;51.75;102551.03;4977646;28;20050;-43
2023/05/30 08:13:14;;;;;;;6.25;2.05;;;;;;;23.31;50.26;102548.47;4987358;28;20054;-50
2023/05/30 08:15:41;;;;;;;8.65;2.05;;;;;;;23.45;48.27;102560.78;4989553;28;20393;-45
2023/05/30 08:18:09;;;;;;;5.00;1.90;;;;;;;23.67;47.52;102560.97;4984609;28;20444;-43
2023/05/30 08:20:36;;;;;;;8.48;2.95;;;;;;;24.00;47.00;102550.31;4964843;28;20493;-42
2023/05/30 08:23:03;;;;;;;9.13;2.38;;;;;;;24.34;46.24;102541.66;4986811;28;20556;-44
2023/05/30 08:25:35;;;;;;;10.23;3.30;;;;;;;24.63;44.82;102563.22;4988683;28;20047;-43
2023/05/30 08:28:03;;;;;;;10.80;2.40;;;;;;;24.58;42.83;102555.13;4990369;28;20062;-43
2023/05/30 08:30:31;;;;;;;6.65;1.90;;;;;;;24.57;42.10;102553.50;4991652;28;20141;-44
2023/05/30 08:33:01;;;;;;;8.40;2.45;;;;;;;24.70;41.98;102552.75;4935173;28;102106;-42
2023/05/30 08:35:29;;;;;;;9.80;2.38;;;;;;;24.79;41.07;102547.56;4950290;28;20110;-43
2023/05/30 08:37:57;;;;;;;7.82;2.28;;;;;;;24.86;41.04;102554.47;4954330;29;20053;-43
2023/05/30 08:40:26;;;;;;;4.93;1.85;;;;;;;24.98;40.52;102542.75;4952125;28;20043;-42
2023/05/30 08:42:53;;;;;;;8.73;2.60;;;;;;;25.06;40.40;102542.38;4952018;28;20598;-49
2023/05/30 08:45:20;;;;;;;8.85;2.70;;;;;;;25.23;39.65;102546.47;4949413;28;20489;-43
2023/05/30 08:47:52;;;;;;;8.90;2.40;;;;;;;25.36;39.69;102550.53;4951312;28;20075;-44
2023/05/30 08:50:21;;;;;;;23.17;3.00;;;;;;;25.38;39.44;102546.06;4951590;28;20445;-47
2023/05/30 08:52:52;;;;;;;7.50;2.60;;;;;;;25.42;39.32;102548.88;4951549;28;20047;-50
2023/05/30 08:55:19;;;;;;;;;;;;;;;25.22;40.34;102550.50;4948257;28;20039;-43
2023/05/30 08:58:04;;;;;;;7.40;2.75;;;;;;;25.45;40.09;102550.94;4951256;28;20033;-43
2023/05/30 09:00:32;;;;;;;8.05;2.70;;;;;;;25.56;39.04;102557.44;4948284;28;20390;-42
2023/05/30 09:03:00;;;;;;;8.57;3.63;;;;;;;25.46;38.70;102561.09;4951202;28;20079;-44
2023/05/30 09:05:29;;;;;;;10.38;2.58;;;;;;;25.63;38.75;102560.28;4951008;28;20334;-44
2023/05/30 09:07:57;;;;;;;8.20;2.80;;;;;;;25.69;38.31;102555.00;4949328;28;20047;-42
2023/05/30 09:10:24;;;;;;;12.98;2.95;;;;;;;25.62;38.70;102552.19;4949899;28;20043;-42
2023/05/30 09:12:54;;;;;;;11.13;2.70;;;;;;;25.73;38.21;102550.97;4952101;28;20114;-42
2023/05/30 09:15:20;;;;;;;7.88;2.22;;;;;;;25.62;38.13;102550.16;4951339;28;20035;-42
2023/05/30 09:17:47;;;;;;;10.05;2.80;;;;;;;25.57;38.35;102555.44;4949797;28;20051;-47
2023/05/30 09:20:16;;;;;;;12.45;2.88;;;;;;;25.71;37.85;102555.41;4950837;28;20058;-42
2023/05/30 09:22:45;;;;;;;9.30;3.10;;;;;;;25.64;37.72;102542.06;4945807;28;20051;-42
2023/05/30 09:25:15;;;;;;;9.07;2.90;;;;;;;25.68;38.36;102559.88;4949124;28;20430;-43
2023/05/30 09:27:52;;;;;;;13.55;3.63;;;;;;;25.37;38.25;102557.81;4949368;29;20047;-43
2023/05/30 09:30:19;;;;;;;11.57;3.05;;;;;;;25.24;37.83;102553.72;4950245;28;20059;-48
2023/05/30 09:33:06;;;;;;;8.27;2.50;;;;;;;25.31;37.94;102553.75;4946393;28;20036;-44
2023/05/30 09:35:33;;;;;;;6.82;2.08;;;;;;;25.39;37.43;102555.38;4943609;28;20478;-44
2023/05/30 09:38:04;;;;;;;11.75;2.70;;;;;;;25.50;37.41;102561.91;4949338;28;20525;-43
2023/05/30 09:40:31;;;;;;;7.57;2.65;;;;;;;25.47;37.66;102556.25;4948166;28;20486;-43
2023/05/30 09:42:58;;;;;;;4.72;1.95;;;;;;;25.62;37.87;102552.19;4949998;28;20087;-45
2023/05/30 09:45:25;;;;;;;8.63;2.85;;;;;;;25.74;37.35;102558.25;4948187;28;20490;-48
2023/05/30 09:47:53;;;;;;;7.80;2.55;;;;;;;25.80;37.36;102558.66;4947016;28;20070;-43
2023/05/30 09:50:23;;;;;;;9.15;2.53;;;;;;;26.06;37.25;102557.41;4948554;28;20062;-43
2023/05/30 09:52:56;;;;;;;7.80;2.22;;;;;;;26.12;36.45;102561.47;4943095;28;20040;-43
2023/05/30 09:55:25;;;;;;;15.98;3.60;;;;;;;25.73;36.49;102556.66;4951119;29;20043;-44
2023/05/30 09:57:53;;;;;;;7.40;3.00;;;;;;;25.58;36.86;102563.53;4934073;29;20051;-43
2023/05/30 10:00:25;;;;;;;8.13;2.97;;;;;;;25.29;36.83;102565.50;4948221;28;20039;-43
2023/05/30 10:02:57;;;;;;;8.25;2.33;;;;;;;24.93;37.10;102562.97;4942354;28;20048;-49
2023/05/30 10:05:26;;;;;;;11.30;2.97;;;;;;;24.83;37.46;102566.59;4941547;28;20068;-46
2023/05/30 10:07:55;;;;;;;10.98;2.85;;;;;;;25.00;37.51;102566.63;4945574;28;21584;-46
2023/05/30 10:10:23;;;;;;;9.48;2.85;;;;;;;24.97;37.54;102561.75;4945762;28;20074;-49
2023/05/30 10:12:52;;;;;;;6.85;2.40;;;;;;;24.90;37.84;102572.28;4943907;28;20043;-43
2023/05/30 10:15:23;;;;;;;12.73;2.70;;;;;;;24.61;37.56;102569.31;4952054;28;20058;-42
2023/05/30 10:18:16;;;;;;;8.50;2.50;;;;;;;24.26;38.16;102559.78;4942090;28;20138;-45
2023/05/30 10:20:46;;;;;;;;;;;;;;;24.21;38.51;102558.16;4948973;28;20048;-42
2023/05/30 10:23:15;;;;;;;13.90;3.58;;;;;;;24.02;38.80;102566.88;4946993;28;19929;-49
2023/05/30 10:25:50;;;;;;;9.10;3.03;;;;;;;23.80;39.27;102554.59;4947823;29;20075;-44
2023/05/30 10:28:23;;;;;;;9.85;2.88;;;;;;;23.76;39.06;102558.59;4947525;28;20449;-46
2023/05/30 10:30:51;;;;;;;11.05;3.10;;;;;;;23.57;39.58;102549.16;4949288;28;20094;-42
2023/05/30 10:33:20;;;;;;;11.43;3.60;;;;;;;23.48;40.21;102547.88;4950789;28;20546;-42
2023/05/30 10:36:06;;;;;;;11.07;2.78;;;;;;;23.18;40.82;102553.63;4951129;28;20142;-48
2023/05/30 10:38:52;;;;;;;12.85;3.35;;;;;;;22.96;41.51;102560.22;4948342;28;20051;-43
2023/05/30 10:41:37;;;;;;;11.45;3.30;;;;;;;22.72;41.77;102550.25;4943302;29;20090;-43
2023/05/30 10:45:04;;;;;;;8.57;3.00;;;;;;;22.55;42.11;102550.00;4939442;28;20457;-50
2023/05/30 10:47:40;;;;;;;7.05;2.60;;;;;;;22.27;42.69;102542.78;4932022;28;20085;-45
2023/05/30 10:50:16;;;;;;;8.57;3.17;;;;;;;22.14;43.45;102541.38;4945885;28;20131;-43
2023/05/30 10:52:47;;;;;;;9.15;2.70;;;;;;;21.94;43.76;102536.25;4950972;28;20445;-44
2023/05/30 10:55:15;;;;;;;9.60;3.17;;;;;;;21.85;43.95;102551.41;4950595;29;20054;-45
2023/05/30 10:57:42;;;;;;;10.15;3.00;;;;;;;21.68;44.08;102546.28;4947406;28;20039;-45
2023/05/30 11:00:23;;;;;;;9.82;2.60;;;;;;;21.57;44.52;102536.84;4941703;28;20413;-46
2023/05/30 11:02:52;;;;;;;16.75;2.80;;;;;;;21.60;44.57;102543.72;4949859;28;20067;-45
2023/05/30 11:05:25;;;;;;;11.82;3.45;;;;;;;21.50;44.79;102542.34;4947108;28;20043;-46
2023/05/30 11:07:58;;;;;;;14.93;2.70;;;;;;;21.14;45.40;102540.09;4949581;28;20051;-45
2023/05/30 11:10:27;;;;;;;8.52;2.65;;;;;;;20.79;45.31;102545.00;4949906;28;20083;-47
2023/05/30 11:13:08;;;;;;;10.32;2.70;;;;;;;20.48;45.38;102534.72;4945395;28;20051;-45
2023/05/30 11:15:36;;;;;;;14.40;3.08;;;;;;;20.23;45.38;102541.75;4949298;28;20076;-48
2023/05/30 11:18:19;;;;;;;9.82;3.03;;;;;;;20.17;46.14;102537.59;4938068;29;20158;-44
2023/05/30 11:20:54;;;;;;;13.30;2.55;;;;;;;19.93;46.97;102544.28;4932566;28;20047;-45
2023/05/30 11:23:23;;;;;;;11.88;2.60;;;;;;;19.72;47.10;102532.53;4946928;28;20486;-45
2023/05/30 11:25:57;;;;;;;8.38;2.80;;;;;;;19.58;47.17;102533.00;4946283;28;20051;-48
2023/05/30 11:28:35;;;;;;;11.75;3.10;;;;;;;19.47;47.58;102520.66;4941552;28;20393;-50